Kinrikimaru — JL6545 — position and weather

sailwx.info

Track history (hours):
 
Tides and Currents Weather Stations Pressure Air Temp Water Temp Dewpoint Dewpoint Depression Visibility Wind Speed Wind Dir Waves Ship Positions

Kinrikimaru

Last reported at 2016-Jul-30 04:33 UTC. Time now 2016-Jul-30 05:24 UTC.
Position N 34°35' E 135°26'.

Length 76 m; draft 4 m.

Type: Cargo ship. MMSI: 431500615.

Date/timePositionNaut miles runAvg speedWind from/ knotsBaromVisibWave heightAir tempDewpointWater temp
2016-Jul-30 04:33N 34°35' E 135°26'0 0.0
2016-Jul-30 03:31N 34°35' E 135°26'0 0.0
2016-Jul-30 02:31N 34°35' E 135°26'0 0.0
2016-Jul-30 01:31N 34°35' E 135°26'0 0.0
2016-Jul-30 00:19N 34°35' E 135°26'0 0.0
2016-Jul-29 23:31N 34°35' E 135°26'1 0.5
2016-Jul-29 22:29N 34°35' E 135°25'0 0.0
2016-Jul-29 21:29N 34°35' E 135°25'0 0.0
2016-Jul-29 20:23N 34°35' E 135°25'0 0.1
2016-Jul-29 19:23N 34°35' E 135°25'0 0.0
2016-Jul-29 18:29N 34°35' E 135°25'0 0.0
2016-Jul-29 17:29N 34°35' E 135°25'0 0.0
2016-Jul-29 16:29N 34°35' E 135°25'0 0.0
2016-Jul-29 15:29N 34°35' E 135°25'0 0.0
2016-Jul-29 14:23N 34°35' E 135°25'0 0.1
2016-Jul-29 13:29N 34°35' E 135°25'0 0.0
2016-Jul-29 12:29N 34°35' E 135°25'0 0.0
2016-Jul-29 11:05N 34°35' E 135°25'0 0.0
2016-Jul-29 10:17N 34°35' E 135°25'0 0.0
2016-Jul-29 09:29N 34°35' E 135°25'0 0.0
2016-Jul-29 07:05N 34°35' E 135°25'2 4.6
2016-Jul-29 06:33N 34°36' E 135°23'1312.8
2016-Jul-29 05:33N 34°35' E 135°07'6 0.2
2016-Jul-28 06:30N 34°37' E 135°01'1212.8
2016-Jul-28 05:33N 34°36' E 135°16'8 1.3
2016-Jul-27 23:20N 34°35' E 135°26'0 0.5
2016-Jul-27 22:27N 34°35' E 135°25'0 0.0
2016-Jul-27 21:27N 34°35' E 135°25'0 0.0
2016-Jul-27 20:21N 34°35' E 135°25'0 0.0
2016-Jul-27 19:33N 34°35' E 135°25'0 0.0
2016-Jul-27 18:33N 34°35' E 135°25'0 0.0
2016-Jul-27 17:33N 34°35' E 135°25'0 0.1
2016-Jul-27 16:33N 34°35' E 135°25'0 0.0
2016-Jul-27 15:33N 34°35' E 135°25'0 0.0
2016-Jul-27 12:33N 34°35' E 135°25'0 0.1
2016-Jul-27 11:27N 34°35' E 135°25'0 0.0
2016-Jul-27 09:33N 34°35' E 135°25'0 0.0
2016-Jul-27 08:30N 34°35' E 135°25'8 8.7
2016-Jul-27 07:33N 34°32' E 135°16'1413.9
2016-Jul-27 06:33N 34°22' E 135°04'1513.4
2016-Jul-27 05:28N 34°08' E 134°58'  
2016-Jul-21 07:25N 34°36' E 134°54'7 8.5
2016-Jul-21 06:33N 34°36' E 135°03'1010.5
2016-Jul-21 05:33N 34°36' E 135°16'8 1.6
2016-Jul-21 00:29N 34°35' E 135°26'0 0.0
2016-Jul-20 23:29N 34°35' E 135°26'0 0.4
2016-Jul-20 22:31N 34°35' E 135°25'0 0.0
2016-Jul-20 21:25N 34°35' E 135°25'0 0.0
2016-Jul-20 20:31N 34°35' E 135°25'1 1.4
2016-Jul-20 19:33N 34°36' E 135°24'1312.5
2016-Jul-20 18:33N 34°35' E 135°09'  
Track history (hours):
 
Tides and Currents Weather Stations Pressure Air Temp Water Temp Dewpoint Dewpoint Depression Visibility Wind Speed Wind Dir Waves Ship Positions

Kinrikimaru

Last reported at 2016-Jul-30 04:33 UTC. Time now 2016-Jul-30 05:24 UTC.
Position N 34°35' E 135°26'.

Length 76 m; draft 4 m.

Type: Cargo ship. MMSI: 431500615.

Date/timePositionNaut miles runAvg speedWind from/ knotsBaromVisibWave heightAir tempDewpointWater temp
2016-Jul-30 04:33N 34°35' E 135°26'0 0.0
2016-Jul-30 03:31N 34°35' E 135°26'0 0.0
2016-Jul-30 02:31N 34°35' E 135°26'0 0.0
2016-Jul-30 01:31N 34°35' E 135°26'0 0.0
2016-Jul-30 00:19N 34°35' E 135°26'0 0.0
2016-Jul-29 23:31N 34°35' E 135°26'1 0.5
2016-Jul-29 22:29N 34°35' E 135°25'0 0.0
2016-Jul-29 21:29N 34°35' E 135°25'0 0.0
2016-Jul-29 20:23N 34°35' E 135°25'0 0.1
2016-Jul-29 19:23N 34°35' E 135°25'0 0.0
2016-Jul-29 18:29N 34°35' E 135°25'0 0.0
2016-Jul-29 17:29N 34°35' E 135°25'0 0.0
2016-Jul-29 16:29N 34°35' E 135°25'0 0.0
2016-Jul-29 15:29N 34°35' E 135°25'0 0.0
2016-Jul-29 14:23N 34°35' E 135°25'0 0.1
2016-Jul-29 13:29N 34°35' E 135°25'0 0.0
2016-Jul-29 12:29N 34°35' E 135°25'0 0.0
2016-Jul-29 11:05N 34°35' E 135°25'0 0.0
2016-Jul-29 10:17N 34°35' E 135°25'0 0.0
2016-Jul-29 09:29N 34°35' E 135°25'0 0.0
2016-Jul-29 07:05N 34°35' E 135°25'2 4.6
2016-Jul-29 06:33N 34°36' E 135°23'1312.8
2016-Jul-29 05:33N 34°35' E 135°07'6 0.2
2016-Jul-28 06:30N 34°37' E 135°01'1212.8
2016-Jul-28 05:33N 34°36' E 135°16'8 1.3
2016-Jul-27 23:20N 34°35' E 135°26'0 0.5
2016-Jul-27 22:27N 34°35' E 135°25'0 0.0
2016-Jul-27 21:27N 34°35' E 135°25'0 0.0
2016-Jul-27 20:21N 34°35' E 135°25'0 0.0
2016-Jul-27 19:33N 34°35' E 135°25'0 0.0
2016-Jul-27 18:33N 34°35' E 135°25'0 0.0
2016-Jul-27 17:33N 34°35' E 135°25'0 0.1
2016-Jul-27 16:33N 34°35' E 135°25'0 0.0
2016-Jul-27 15:33N 34°35' E 135°25'0 0.0
2016-Jul-27 12:33N 34°35' E 135°25'0 0.1
2016-Jul-27 11:27N 34°35' E 135°25'0 0.0
2016-Jul-27 09:33N 34°35' E 135°25'0 0.0
2016-Jul-27 08:30N 34°35' E 135°25'8 8.7
2016-Jul-27 07:33N 34°32' E 135°16'1413.9
2016-Jul-27 06:33N 34°22' E 135°04'1513.4
2016-Jul-27 05:28N 34°08' E 134°58'  
2016-Jul-21 07:25N 34°36' E 134°54'7 8.5
2016-Jul-21 06:33N 34°36' E 135°03'1010.5
2016-Jul-21 05:33N 34°36' E 135°16'8 1.6
2016-Jul-21 00:29N 34°35' E 135°26'0 0.0
2016-Jul-20 23:29N 34°35' E 135°26'0 0.4
2016-Jul-20 22:31N 34°35' E 135°25'0 0.0
2016-Jul-20 21:25N 34°35' E 135°25'0 0.0
2016-Jul-20 20:31N 34°35' E 135°25'1 1.4
2016-Jul-20 19:33N 34°36' E 135°24'1312.5
2016-Jul-20 18:33N 34°35' E 135°09'  

Dump ship's entire track history